sensor_id;sensor_type;location;lat;lon;timestamp;P1;durP1;ratioP1;P2;durP2;ratioP2
18867;SDS011;9563;49.240;9.088;2023-09-07T04:01:20;7.78;;;3.78;;
18867;SDS011;9563;49.240;9.088;2023-09-07T04:03:46;5.43;;;3.85;;
18867;SDS011;9563;49.240;9.088;2023-09-07T04:06:15;6.90;;;4.32;;
18867;SDS011;9563;49.240;9.088;2023-09-07T04:08:42;5.15;;;3.70;;
18867;SDS011;9563;49.240;9.088;2023-09-07T04:11:09;7.65;;;4.32;;
18867;SDS011;9563;49.240;9.088;2023-09-07T04:13:36;9.60;;;4.32;;
18867;SDS011;9563;49.240;9.088;2023-09-07T04:16:03;6.28;;;3.88;;
18867;SDS011;9563;49.240;9.088;2023-09-07T04:18:31;6.63;;;3.80;;
18867;SDS011;9563;49.240;9.088;2023-09-07T04:21:04;5.60;;;4.03;;
18867;SDS011;9563;49.240;9.088;2023-09-07T04:23:31;6.30;;;3.80;;
18867;SDS011;9563;49.240;9.088;2023-09-07T04:26:03;5.22;;;3.90;;
18867;SDS011;9563;49.240;9.088;2023-09-07T04:28:31;6.85;;;3.95;;
18867;SDS011;9563;49.240;9.088;2023-09-07T04:30:59;6.07;;;3.95;;
18867;SDS011;9563;49.240;9.088;2023-09-07T04:33:26;5.68;;;3.90;;
18867;SDS011;9563;49.240;9.088;2023-09-07T04:35:57;6.05;;;3.67;;
18867;SDS011;9563;49.240;9.088;2023-09-07T04:38:24;6.00;;;3.88;;
18867;SDS011;9563;49.240;9.088;2023-09-07T04:40:51;8.15;;;3.80;;
18867;SDS011;9563;49.240;9.088;2023-09-07T04:43:18;8.82;;;4.18;;
18867;SDS011;9563;49.240;9.088;2023-09-07T04:45:45;4.68;;;3.80;;
18867;SDS011;9563;49.240;9.088;2023-09-07T04:48:12;8.55;;;3.95;;
18867;SDS011;9563;49.240;9.088;2023-09-07T04:50:39;10.45;;;4.35;;
18867;SDS011;9563;49.240;9.088;2023-09-07T04:53:07;4.43;;;3.47;;
18867;SDS011;9563;49.240;9.088;2023-09-07T04:55:36;6.78;;;3.58;;
18867;SDS011;9563;49.240;9.088;2023-09-07T04:58:04;11.32;;;4.18;;
18867;SDS011;9563;49.240;9.088;2023-09-07T05:00:30;12.07;;;5.28;;
18867;SDS011;9563;49.240;9.088;2023-09-07T05:02:57;5.72;;;4.20;;
18867;SDS011;9563;49.240;9.088;2023-09-07T05:05:24;10.43;;;3.70;;
18867;SDS011;9563;49.240;9.088;2023-09-07T05:07:51;6.82;;;4.00;;
18867;SDS011;9563;49.240;9.088;2023-09-07T05:10:20;5.15;;;3.58;;
18867;SDS011;9563;49.240;9.088;2023-09-07T05:12:47;4.55;;;3.25;;
18867;SDS011;9563;49.240;9.088;2023-09-07T05:15:14;4.45;;;3.45;;
18867;SDS011;9563;49.240;9.088;2023-09-07T05:17:41;10.00;;;3.70;;
18867;SDS011;9563;49.240;9.088;2023-09-07T05:20:08;6.97;;;3.63;;
18867;SDS011;9563;49.240;9.088;2023-09-07T05:22:35;7.38;;;3.85;;
18867;SDS011;9563;49.240;9.088;2023-09-07T05:25:05;6.38;;;3.38;;
18867;SDS011;9563;49.240;9.088;2023-09-07T05:27:35;6.97;;;3.70;;
18867;SDS011;9563;49.240;9.088;2023-09-07T05:30:03;5.45;;;3.85;;
18867;SDS011;9563;49.240;9.088;2023-09-07T05:32:31;8.73;;;4.18;;
18867;SDS011;9563;49.240;9.088;2023-09-07T05:34:58;7.15;;;3.65;;
18867;SDS011;9563;49.240;9.088;2023-09-07T05:37:25;7.25;;;4.50;;
18867;SDS011;9563;49.240;9.088;2023-09-07T05:39:52;4.70;;;3.42;;
18867;SDS011;9563;49.240;9.088;2023-09-07T05:42:19;7.45;;;4.03;;
18867;SDS011;9563;49.240;9.088;2023-09-07T05:44:47;6.25;;;3.90;;
18867;SDS011;9563;49.240;9.088;2023-09-07T05:47:14;7.65;;;3.72;;
18867;SDS011;9563;49.240;9.088;2023-09-07T05:49:42;7.35;;;3.83;;
18867;SDS011;9563;49.240;9.088;2023-09-07T05:52:11;8.80;;;3.83;;
18867;SDS011;9563;49.240;9.088;2023-09-07T05:54:38;7.68;;;4.32;;
18867;SDS011;9563;49.240;9.088;2023-09-07T05:57:04;7.78;;;3.83;;
18867;SDS011;9563;49.240;9.088;2023-09-07T05:59:31;6.75;;;4.22;;
18867;SDS011;9563;49.240;9.088;2023-09-07T06:01:59;6.97;;;4.35;;
18867;SDS011;9563;49.240;9.088;2023-09-07T06:04:26;5.90;;;3.63;;
18867;SDS011;9563;49.240;9.088;2023-09-07T06:06:53;4.40;;;3.88;;
18867;SDS011;9563;49.240;9.088;2023-09-07T06:09:20;8.93;;;3.83;;
18867;SDS011;9563;49.240;9.088;2023-09-07T06:11:47;6.18;;;4.22;;
18867;SDS011;9563;49.240;9.088;2023-09-07T06:14:14;12.02;;;4.57;;
18867;SDS011;9563;49.240;9.088;2023-09-07T06:16:40;8.15;;;3.88;;
18867;SDS011;9563;49.240;9.088;2023-09-07T06:19:10;6.95;;;4.40;;
18867;SDS011;9563;49.240;9.088;2023-09-07T06:21:37;5.97;;;3.42;;
18867;SDS011;9563;49.240;9.088;2023-09-07T06:24:04;4.65;;;3.67;;
18867;SDS011;9563;49.240;9.088;2023-09-07T06:26:31;5.80;;;3.65;;
18867;SDS011;9563;49.240;9.088;2023-09-07T06:28:59;5.22;;;3.80;;
18867;SDS011;9563;49.240;9.088;2023-09-07T06:31:25;6.22;;;4.20;;
18867;SDS011;9563;49.240;9.088;2023-09-07T06:33:53;7.43;;;4.05;;
18867;SDS011;9563;49.240;9.088;2023-09-07T06:36:22;5.47;;;3.95;;
18867;SDS011;9563;49.240;9.088;2023-09-07T06:38:49;10.82;;;4.45;;
18867;SDS011;9563;49.240;9.088;2023-09-07T06:41:16;7.53;;;4.40;;
18867;SDS011;9563;49.240;9.088;2023-09-07T06:43:42;5.25;;;3.75;;
18867;SDS011;9563;49.240;9.088;2023-09-07T06:46:09;8.77;;;3.72;;
18867;SDS011;9563;49.240;9.088;2023-09-07T06:48:36;5.88;;;4.03;;
18867;SDS011;9563;49.240;9.088;2023-09-07T06:51:04;5.72;;;3.55;;
18867;SDS011;9563;49.240;9.088;2023-09-07T06:53:34;6.50;;;3.90;;
18867;SDS011;9563;49.240;9.088;2023-09-07T06:56:02;4.75;;;3.60;;
18867;SDS011;9563;49.240;9.088;2023-09-07T06:58:29;6.72;;;3.58;;
18867;SDS011;9563;49.240;9.088;2023-09-07T07:00:57;4.18;;;3.47;;
18867;SDS011;9563;49.240;9.088;2023-09-07T07:03:26;6.03;;;3.40;;
18867;SDS011;9563;49.240;9.088;2023-09-07T07:05:53;9.98;;;3.85;;
18867;SDS011;9563;49.240;9.088;2023-09-07T07:08:22;9.43;;;3.70;;
18867;SDS011;9563;49.240;9.088;2023-09-07T07:10:51;9.45;;;4.03;;
18867;SDS011;9563;49.240;9.088;2023-09-07T07:13:18;9.27;;;3.85;;
18867;SDS011;9563;49.240;9.088;2023-09-07T07:15:45;4.80;;;3.33;;
18867;SDS011;9563;49.240;9.088;2023-09-07T07:18:12;6.65;;;3.60;;
18867;SDS011;9563;49.240;9.088;2023-09-07T07:20:40;5.45;;;4.00;;
18867;SDS011;9563;49.240;9.088;2023-09-07T07:23:08;4.78;;;3.60;;
18867;SDS011;9563;49.240;9.088;2023-09-07T07:25:35;5.88;;;3.65;;
18867;SDS011;9563;49.240;9.088;2023-09-07T07:28:05;5.43;;;3.38;;
18867;SDS011;9563;49.240;9.088;2023-09-07T07:30:33;8.43;;;3.95;;
18867;SDS011;9563;49.240;9.088;2023-09-07T07:33:01;5.18;;;3.55;;
18867;SDS011;9563;49.240;9.088;2023-09-07T07:35:29;7.90;;;3.83;;
18867;SDS011;9563;49.240;9.088;2023-09-07T07:37:56;6.38;;;3.67;;
18867;SDS011;9563;49.240;9.088;2023-09-07T07:40:23;6.07;;;3.78;;
18867;SDS011;9563;49.240;9.088;2023-09-07T07:42:51;10.20;;;4.05;;
18867;SDS011;9563;49.240;9.088;2023-09-07T07:45:20;6.70;;;3.65;;
18867;SDS011;9563;49.240;9.088;2023-09-07T07:47:47;5.65;;;3.92;;
18867;SDS011;9563;49.240;9.088;2023-09-07T07:50:15;5.70;;;3.40;;
18867;SDS011;9563;49.240;9.088;2023-09-07T07:52:42;7.47;;;3.75;;
18867;SDS011;9563;49.240;9.088;2023-09-07T07:55:10;4.30;;;3.42;;
18867;SDS011;9563;49.240;9.088;2023-09-07T07:57:37;5.70;;;3.78;;
18867;SDS011;9563;49.240;9.088;2023-09-07T08:00:05;6.88;;;3.30;;
18867;SDS011;9563;49.240;9.088;2023-09-07T08:02:34;5.05;;;3.70;;
18867;SDS011;9563;49.240;9.088;2023-09-07T08:05:09;4.72;;;3.30;;
18867;SDS011;9563;49.240;9.088;2023-09-07T08:07:36;8.70;;;3.25;;
18867;SDS011;9563;49.240;9.088;2023-09-07T08:10:03;5.45;;;3.53;;
18867;SDS011;9563;49.240;9.088;2023-09-07T08:12:31;4.95;;;3.40;;
18867;SDS011;9563;49.240;9.088;2023-09-07T08:14:57;5.75;;;3.53;;
18867;SDS011;9563;49.240;9.088;2023-09-07T08:17:24;5.13;;;3.42;;
18867;SDS011;9563;49.240;9.088;2023-09-07T08:19:52;5.70;;;3.63;;
18867;SDS011;9563;49.240;9.088;2023-09-07T08:22:21;5.68;;;3.80;;
18867;SDS011;9563;49.240;9.088;2023-09-07T08:24:48;4.90;;;3.53;;
18867;SDS011;9563;49.240;9.088;2023-09-07T08:27:16;5.38;;;3.25;;
18867;SDS011;9563;49.240;9.088;2023-09-07T08:29:43;7.40;;;3.53;;
18867;SDS011;9563;49.240;9.088;2023-09-07T08:32:12;7.10;;;3.15;;
18867;SDS011;9563;49.240;9.088;2023-09-07T08:34:39;12.18;;;3.38;;
18867;SDS011;9563;49.240;9.088;2023-09-07T08:37:08;8.13;;;3.50;;
18867;SDS011;9563;49.240;9.088;2023-09-07T08:39:35;4.13;;;3.40;;
18867;SDS011;9563;49.240;9.088;2023-09-07T08:42:04;4.90;;;3.38;;
18867;SDS011;9563;49.240;9.088;2023-09-07T08:44:32;4.65;;;3.55;;
18867;SDS011;9563;49.240;9.088;2023-09-07T08:47:00;6.05;;;3.63;;
18867;SDS011;9563;49.240;9.088;2023-09-07T08:49:29;5.80;;;3.45;;
18867;SDS011;9563;49.240;9.088;2023-09-07T08:51:59;8.57;;;3.90;;
18867;SDS011;9563;49.240;9.088;2023-09-07T08:54:28;8.00;;;4.03;;
18867;SDS011;9563;49.240;9.088;2023-09-07T08:56:56;4.03;;;3.25;;
18867;SDS011;9563;49.240;9.088;2023-09-07T08:59:24;5.55;;;3.60;;
18867;SDS011;9563;49.240;9.088;2023-09-07T09:01:56;5.70;;;3.67;;
18867;SDS011;9563;49.240;9.088;2023-09-07T09:04:23;6.72;;;3.72;;
18867;SDS011;9563;49.240;9.088;2023-09-07T09:06:50;7.57;;;3.50;;
18867;SDS011;9563;49.240;9.088;2023-09-07T09:09:21;6.25;;;3.78;;
18867;SDS011;9563;49.240;9.088;2023-09-07T09:11:51;7.60;;;3.15;;
18867;SDS011;9563;49.240;9.088;2023-09-07T09:14:18;4.53;;;3.22;;
18867;SDS011;9563;49.240;9.088;2023-09-07T09:16:50;4.22;;;2.85;;
18867;SDS011;9563;49.240;9.088;2023-09-07T09:19:17;8.38;;;3.58;;
18867;SDS011;9563;49.240;9.088;2023-09-07T09:21:44;6.95;;;3.38;;
18867;SDS011;9563;49.240;9.088;2023-09-07T09:24:12;6.65;;;3.15;;
18867;SDS011;9563;49.240;9.088;2023-09-07T09:26:39;4.85;;;3.30;;
18867;SDS011;9563;49.240;9.088;2023-09-07T09:29:10;6.20;;;3.47;;
18867;SDS011;9563;49.240;9.088;2023-09-07T09:31:37;12.98;;;3.47;;
18867;SDS011;9563;49.240;9.088;2023-09-07T09:34:04;8.20;;;3.20;;
18867;SDS011;9563;49.240;9.088;2023-09-07T09:36:32;6.70;;;3.78;;
18867;SDS011;9563;49.240;9.088;2023-09-07T09:39:00;7.28;;;3.25;;
18867;SDS011;9563;49.240;9.088;2023-09-07T09:41:28;3.92;;;3.53;;
18867;SDS011;9563;49.240;9.088;2023-09-07T09:43:58;6.30;;;3.10;;
18867;SDS011;9563;49.240;9.088;2023-09-07T09:46:28;7.28;;;3.45;;
18867;SDS011;9563;49.240;9.088;2023-09-07T09:48:57;6.63;;;3.50;;
18867;SDS011;9563;49.240;9.088;2023-09-07T09:51:24;7.75;;;3.47;;
18867;SDS011;9563;49.240;9.088;2023-09-07T09:53:53;5.22;;;3.03;;
18867;SDS011;9563;49.240;9.088;2023-09-07T09:56:21;4.07;;;3.08;;
18867;SDS011;9563;49.240;9.088;2023-09-07T09:58:48;8.18;;;3.33;;
18867;SDS011;9563;49.240;9.088;2023-09-07T10:01:15;5.25;;;2.90;;
18867;SDS011;9563;49.240;9.088;2023-09-07T10:03:44;6.65;;;3.40;;
18867;SDS011;9563;49.240;9.088;2023-09-07T10:06:17;7.28;;;3.13;;
18867;SDS011;9563;49.240;9.088;2023-09-07T10:08:52;6.53;;;3.15;;
18867;SDS011;9563;49.240;9.088;2023-09-07T10:11:26;4.07;;;3.13;;
18867;SDS011;9563;49.240;9.088;2023-09-07T10:13:56;4.55;;;3.58;;
18867;SDS011;9563;49.240;9.088;2023-09-07T10:16:24;7.30;;;3.22;;
18867;SDS011;9563;49.240;9.088;2023-09-07T10:18:53;4.07;;;3.25;;
18867;SDS011;9563;49.240;9.088;2023-09-07T10:21:23;5.72;;;3.15;;
18867;SDS011;9563;49.240;9.088;2023-09-07T10:23:52;4.03;;;3.15;;
18867;SDS011;9563;49.240;9.088;2023-09-07T10:26:20;7.85;;;3.30;;
18867;SDS011;9563;49.240;9.088;2023-09-07T10:28:58;6.47;;;3.83;;
18867;SDS011;9563;49.240;9.088;2023-09-07T10:31:28;5.57;;;3.90;;
18867;SDS011;9563;49.240;9.088;2023-09-07T10:34:07;6.43;;;3.58;;
18867;SDS011;9563;49.240;9.088;2023-09-07T10:36:35;10.90;;;2.95;;
18867;SDS011;9563;49.240;9.088;2023-09-07T10:39:03;6.65;;;3.15;;
18867;SDS011;9563;49.240;9.088;2023-09-07T10:41:39;4.95;;;3.20;;
18867;SDS011;9563;49.240;9.088;2023-09-07T10:44:07;5.38;;;2.97;;
18867;SDS011;9563;49.240;9.088;2023-09-07T10:46:37;5.25;;;3.30;;
18867;SDS011;9563;49.240;9.088;2023-09-07T10:49:08;8.38;;;3.08;;
18867;SDS011;9563;49.240;9.088;2023-09-07T10:51:41;4.80;;;3.00;;
18867;SDS011;9563;49.240;9.088;2023-09-07T10:54:16;5.25;;;3.30;;
18867;SDS011;9563;49.240;9.088;2023-09-07T10:56:44;4.93;;;2.85;;
18867;SDS011;9563;49.240;9.088;2023-09-07T10:59:12;5.95;;;3.00;;
18867;SDS011;9563;49.240;9.088;2023-09-07T11:01:40;4.28;;;3.00;;
18867;SDS011;9563;49.240;9.088;2023-09-07T11:04:11;5.40;;;3.20;;
18867;SDS011;9563;49.240;9.088;2023-09-07T11:06:39;5.68;;;2.83;;
18867;SDS011;9563;49.240;9.088;2023-09-07T11:09:08;4.47;;;3.05;;
18867;SDS011;9563;49.240;9.088;2023-09-07T11:11:36;4.93;;;3.05;;
18867;SDS011;9563;49.240;9.088;2023-09-07T11:14:03;5.57;;;3.22;;
18867;SDS011;9563;49.240;9.088;2023-09-07T11:16:32;7.65;;;3.17;;
18867;SDS011;9563;49.240;9.088;2023-09-07T11:19:02;4.57;;;3.13;;
18867;SDS011;9563;49.240;9.088;2023-09-07T11:21:35;3.63;;;2.97;;
18867;SDS011;9563;49.240;9.088;2023-09-07T11:24:02;4.65;;;2.80;;
18867;SDS011;9563;49.240;9.088;2023-09-07T11:26:42;4.43;;;2.88;;
18867;SDS011;9563;49.240;9.088;2023-09-07T11:29:13;6.68;;;2.95;;
18867;SDS011;9563;49.240;9.088;2023-09-07T11:31:44;5.57;;;2.70;;
18867;SDS011;9563;49.240;9.088;2023-09-07T11:34:11;4.40;;;2.60;;
18867;SDS011;9563;49.240;9.088;2023-09-07T11:36:43;3.85;;;2.95;;
18867;SDS011;9563;49.240;9.088;2023-09-07T11:39:11;3.65;;;3.03;;
18867;SDS011;9563;49.240;9.088;2023-09-07T11:41:38;4.13;;;2.90;;
18867;SDS011;9563;49.240;9.088;2023-09-07T11:44:06;6.28;;;2.70;;
18867;SDS011;9563;49.240;9.088;2023-09-07T11:46:34;7.03;;;3.10;;
18867;SDS011;9563;49.240;9.088;2023-09-07T11:49:01;6.22;;;3.08;;
18867;SDS011;9563;49.240;9.088;2023-09-07T11:51:30;6.10;;;3.05;;
18867;SDS011;9563;49.240;9.088;2023-09-07T11:54:01;5.07;;;3.22;;
18867;SDS011;9563;49.240;9.088;2023-09-07T11:56:28;6.60;;;2.70;;
18867;SDS011;9563;49.240;9.088;2023-09-07T11:58:55;5.97;;;2.92;;
18867;SDS011;9563;49.240;9.088;2023-09-07T12:01:23;5.35;;;2.92;;
18867;SDS011;9563;49.240;9.088;2023-09-07T12:03:52;6.35;;;3.00;;
18867;SDS011;9563;49.240;9.088;2023-09-07T12:06:19;4.38;;;3.17;;
18867;SDS011;9563;49.240;9.088;2023-09-07T12:08:57;5.30;;;3.45;;
18867;SDS011;9563;49.240;9.088;2023-09-07T12:11:26;3.72;;;2.75;;
18867;SDS011;9563;49.240;9.088;2023-09-07T12:13:53;6.70;;;3.15;;
18867;SDS011;9563;49.240;9.088;2023-09-07T12:16:20;4.28;;;3.00;;
18867;SDS011;9563;49.240;9.088;2023-09-07T12:18:47;9.15;;;2.90;;
18867;SDS011;9563;49.240;9.088;2023-09-07T12:21:14;4.95;;;2.88;;
18867;SDS011;9563;49.240;9.088;2023-09-07T12:23:42;5.00;;;3.10;;
18867;SDS011;9563;49.240;9.088;2023-09-07T12:26:11;7.40;;;2.70;;
18867;SDS011;9563;49.240;9.088;2023-09-07T12:28:40;7.43;;;2.90;;
18867;SDS011;9563;49.240;9.088;2023-09-07T12:31:07;4.15;;;2.65;;
18867;SDS011;9563;49.240;9.088;2023-09-07T12:33:36;4.00;;;2.90;;
18867;SDS011;9563;49.240;9.088;2023-09-07T12:36:03;5.57;;;2.80;;
18867;SDS011;9563;49.240;9.088;2023-09-07T12:38:34;5.55;;;2.55;;
18867;SDS011;9563;49.240;9.088;2023-09-07T12:41:01;5.82;;;2.50;;
18867;SDS011;9563;49.240;9.088;2023-09-07T12:43:28;6.10;;;3.00;;
18867;SDS011;9563;49.240;9.088;2023-09-07T12:45:58;4.95;;;2.40;;
18867;SDS011;9563;49.240;9.088;2023-09-07T12:48:27;3.92;;;2.80;;
18867;SDS011;9563;49.240;9.088;2023-09-07T12:50:54;4.25;;;2.80;;
18867;SDS011;9563;49.240;9.088;2023-09-07T12:53:23;5.43;;;2.75;;
18867;SDS011;9563;49.240;9.088;2023-09-07T12:55:58;4.22;;;3.20;;
18867;SDS011;9563;49.240;9.088;2023-09-07T12:58:26;3.63;;;2.72;;
18867;SDS011;9563;49.240;9.088;2023-09-07T13:00:55;5.65;;;2.95;;
18867;SDS011;9563;49.240;9.088;2023-09-07T13:03:24;3.78;;;2.78;;
18867;SDS011;9563;49.240;9.088;2023-09-07T13:05:51;3.45;;;2.75;;
18867;SDS011;9563;49.240;9.088;2023-09-07T13:08:18;5.53;;;2.90;;
18867;SDS011;9563;49.240;9.088;2023-09-07T13:10:46;5.68;;;2.67;;
18867;SDS011;9563;49.240;9.088;2023-09-07T13:13:13;3.85;;;2.72;;
18867;SDS011;9563;49.240;9.088;2023-09-07T13:15:46;4.85;;;2.80;;
18867;SDS011;9563;49.240;9.088;2023-09-07T13:18:17;7.40;;;3.08;;
18867;SDS011;9563;49.240;9.088;2023-09-07T13:20:47;18.75;;;3.35;;
18867;SDS011;9563;49.240;9.088;2023-09-07T13:23:20;2.70;;;2.28;;
18867;SDS011;9563;49.240;9.088;2023-09-07T13:25:49;6.00;;;2.65;;
18867;SDS011;9563;49.240;9.088;2023-09-07T13:28:17;4.45;;;2.80;;
18867;SDS011;9563;49.240;9.088;2023-09-07T13:30:44;5.28;;;3.05;;
18867;SDS011;9563;49.240;9.088;2023-09-07T13:33:11;5.43;;;2.90;;
18867;SDS011;9563;49.240;9.088;2023-09-07T13:35:40;4.18;;;3.08;;
18867;SDS011;9563;49.240;9.088;2023-09-07T13:38:10;10.20;;;3.05;;
18867;SDS011;9563;49.240;9.088;2023-09-07T13:40:37;3.67;;;2.83;;
18867;SDS011;9563;49.240;9.088;2023-09-07T13:43:06;7.82;;;3.30;;
18867;SDS011;9563;49.240;9.088;2023-09-07T13:45:35;10.73;;;3.05;;
18867;SDS011;9563;49.240;9.088;2023-09-07T13:48:02;5.22;;;2.63;;
18867;SDS011;9563;49.240;9.088;2023-09-07T13:50:29;5.30;;;2.67;;
18867;SDS011;9563;49.240;9.088;2023-09-07T13:52:56;4.13;;;3.10;;
18867;SDS011;9563;49.240;9.088;2023-09-07T13:55:25;4.95;;;3.20;;
18867;SDS011;9563;49.240;9.088;2023-09-07T13:57:55;3.80;;;2.70;;
18867;SDS011;9563;49.240;9.088;2023-09-07T14:00:22;3.13;;;2.72;;
18867;SDS011;9563;49.240;9.088;2023-09-07T14:02:49;3.60;;;2.50;;
18867;SDS011;9563;49.240;9.088;2023-09-07T14:05:16;9.23;;;3.35;;
18867;SDS011;9563;49.240;9.088;2023-09-07T14:07:43;8.10;;;3.28;;
18867;SDS011;9563;49.240;9.088;2023-09-07T14:10:10;5.00;;;3.10;;
18867;SDS011;9563;49.240;9.088;2023-09-07T14:12:39;4.97;;;2.90;;
18867;SDS011;9563;49.240;9.088;2023-09-07T14:15:10;3.63;;;3.00;;
18867;SDS011;9563;49.240;9.088;2023-09-07T14:17:43;6.43;;;3.35;;
18867;SDS011;9563;49.240;9.088;2023-09-07T14:20:10;4.28;;;2.70;;
18867;SDS011;9563;49.240;9.088;2023-09-07T14:22:37;5.88;;;3.20;;
18867;SDS011;9563;49.240;9.088;2023-09-07T14:25:05;6.75;;;3.00;;
18867;SDS011;9563;49.240;9.088;2023-09-07T14:27:33;5.32;;;2.97;;
18867;SDS011;9563;49.240;9.088;2023-09-07T14:30:01;7.50;;;3.10;;
18867;SDS011;9563;49.240;9.088;2023-09-07T14:32:28;4.15;;;3.15;;
18867;SDS011;9563;49.240;9.088;2023-09-07T14:34:56;5.78;;;3.00;;
18867;SDS011;9563;49.240;9.088;2023-09-07T14:37:23;5.97;;;3.03;;
18867;SDS011;9563;49.240;9.088;2023-09-07T14:39:50;5.22;;;3.22;;
18867;SDS011;9563;49.240;9.088;2023-09-07T14:42:22;6.30;;;3.13;;
18867;SDS011;9563;49.240;9.088;2023-09-07T14:44:49;4.30;;;2.75;;
18867;SDS011;9563;49.240;9.088;2023-09-07T14:47:18;5.15;;;3.22;;
18867;SDS011;9563;49.240;9.088;2023-09-07T14:49:50;4.47;;;2.90;;
18867;SDS011;9563;49.240;9.088;2023-09-07T14:52:17;4.25;;;3.00;;
18867;SDS011;9563;49.240;9.088;2023-09-07T14:54:44;5.45;;;3.13;;
18867;SDS011;9563;49.240;9.088;2023-09-07T14:57:11;5.00;;;2.95;;
18867;SDS011;9563;49.240;9.088;2023-09-07T14:59:37;5.97;;;3.10;;
18867;SDS011;9563;49.240;9.088;2023-09-07T15:02:05;6.07;;;2.90;;
18867;SDS011;9563;49.240;9.088;2023-09-07T15:04:34;4.22;;;2.60;;
18867;SDS011;9563;49.240;9.088;2023-09-07T15:07:01;5.15;;;3.33;;
18867;SDS011;9563;49.240;9.088;2023-09-07T15:09:28;6.57;;;2.80;;
18867;SDS011;9563;49.240;9.088;2023-09-07T15:11:54;7.75;;;2.70;;
18867;SDS011;9563;49.240;9.088;2023-09-07T15:14:21;8.48;;;3.13;;
18867;SDS011;9563;49.240;9.088;2023-09-07T15:16:48;7.05;;;3.13;;
18867;SDS011;9563;49.240;9.088;2023-09-07T15:19:15;6.03;;;2.97;;
18867;SDS011;9563;49.240;9.088;2023-09-07T15:21:45;3.58;;;2.80;;
18867;SDS011;9563;49.240;9.088;2023-09-07T15:24:11;5.50;;;3.53;;
18867;SDS011;9563;49.240;9.088;2023-09-07T15:26:41;3.33;;;2.67;;
18867;SDS011;9563;49.240;9.088;2023-09-07T15:29:09;6.03;;;3.30;;
18867;SDS011;9563;49.240;9.088;2023-09-07T15:31:36;7.75;;;3.42;;
18867;SDS011;9563;49.240;9.088;2023-09-07T15:34:04;6.20;;;3.00;;
18867;SDS011;9563;49.240;9.088;2023-09-07T15:36:31;5.70;;;3.28;;
18867;SDS011;9563;49.240;9.088;2023-09-07T15:38:59;5.78;;;2.85;;
18867;SDS011;9563;49.240;9.088;2023-09-07T15:41:26;5.38;;;2.90;;
18867;SDS011;9563;49.240;9.088;2023-09-07T15:43:53;5.60;;;3.22;;
18867;SDS011;9563;49.240;9.088;2023-09-07T15:46:21;5.05;;;2.92;;
18867;SDS011;9563;49.240;9.088;2023-09-07T15:48:49;4.03;;;2.83;;
18867;SDS011;9563;49.240;9.088;2023-09-07T15:51:18;5.20;;;2.72;;
18867;SDS011;9563;49.240;9.088;2023-09-07T15:53:44;4.03;;;2.95;;
18867;SDS011;9563;49.240;9.088;2023-09-07T15:56:13;6.43;;;2.90;;
18867;SDS011;9563;49.240;9.088;2023-09-07T15:58:40;5.15;;;2.60;;
18867;SDS011;9563;49.240;9.088;2023-09-07T16:01:07;9.70;;;3.08;;
18867;SDS011;9563;49.240;9.088;2023-09-07T16:03:33;4.70;;;3.25;;
18867;SDS011;9563;49.240;9.088;2023-09-07T16:06:00;3.78;;;2.53;;
18867;SDS011;9563;49.240;9.088;2023-09-07T16:08:27;5.50;;;3.22;;
18867;SDS011;9563;49.240;9.088;2023-09-07T16:10:54;4.85;;;2.70;;
18867;SDS011;9563;49.240;9.088;2023-09-07T16:13:23;9.85;;;3.13;;
18867;SDS011;9563;49.240;9.088;2023-09-07T16:15:50;4.72;;;3.25;;
18867;SDS011;9563;49.240;9.088;2023-09-07T16:18:17;4.68;;;2.95;;
18867;SDS011;9563;49.240;9.088;2023-09-07T16:20:45;3.65;;;2.70;;
18867;SDS011;9563;49.240;9.088;2023-09-07T16:23:14;7.72;;;2.95;;
18867;SDS011;9563;49.240;9.088;2023-09-07T16:25:40;3.35;;;2.72;;
18867;SDS011;9563;49.240;9.088;2023-09-07T16:28:07;6.53;;;3.00;;
18867;SDS011;9563;49.240;9.088;2023-09-07T16:30:35;4.80;;;3.00;;
18867;SDS011;9563;49.240;9.088;2023-09-07T16:33:02;5.75;;;3.30;;
18867;SDS011;9563;49.240;9.088;2023-09-07T16:35:30;8.43;;;2.80;;
18867;SDS011;9563;49.240;9.088;2023-09-07T16:37:59;8.68;;;3.20;;
18867;SDS011;9563;49.240;9.088;2023-09-07T16:40:26;6.75;;;2.90;;
18867;SDS011;9563;49.240;9.088;2023-09-07T16:42:52;6.28;;;3.30;;
18867;SDS011;9563;49.240;9.088;2023-09-07T16:45:19;4.43;;;3.45;;
18867;SDS011;9563;49.240;9.088;2023-09-07T16:47:47;6.43;;;3.53;;
18867;SDS011;9563;49.240;9.088;2023-09-07T16:50:14;11.45;;;4.30;;
18867;SDS011;9563;49.240;9.088;2023-09-07T16:52:41;7.10;;;3.05;;
18867;SDS011;9563;49.240;9.088;2023-09-07T16:55:08;5.65;;;2.80;;
18867;SDS011;9563;49.240;9.088;2023-09-07T16:57:35;5.55;;;3.15;;
18867;SDS011;9563;49.240;9.088;2023-09-07T17:00:02;5.00;;;2.97;;
18867;SDS011;9563;49.240;9.088;2023-09-07T17:02:30;4.03;;;2.75;;
18867;SDS011;9563;49.240;9.088;2023-09-07T17:04:58;8.52;;;3.00;;
18867;SDS011;9563;49.240;9.088;2023-09-07T17:07:25;5.88;;;3.20;;
18867;SDS011;9563;49.240;9.088;2023-09-07T17:09:52;8.23;;;3.30;;
18867;SDS011;9563;49.240;9.088;2023-09-07T17:12:19;5.72;;;3.10;;
18867;SDS011;9563;49.240;9.088;2023-09-07T17:14:46;3.63;;;2.85;;
18867;SDS011;9563;49.240;9.088;2023-09-07T17:17:13;4.72;;;2.80;;
18867;SDS011;9563;49.240;9.088;2023-09-07T17:19:40;7.13;;;3.17;;
18867;SDS011;9563;49.240;9.088;2023-09-07T17:22:08;6.93;;;3.50;;
18867;SDS011;9563;49.240;9.088;2023-09-07T17:24:36;5.55;;;3.42;;
18867;SDS011;9563;49.240;9.088;2023-09-07T17:27:03;6.03;;;3.55;;
18867;SDS011;9563;49.240;9.088;2023-09-07T17:29:31;4.03;;;3.28;;
18867;SDS011;9563;49.240;9.088;2023-09-07T17:31:58;6.47;;;3.35;;
18867;SDS011;9563;49.240;9.088;2023-09-07T17:34:25;5.43;;;3.45;;
18867;SDS011;9563;49.240;9.088;2023-09-07T17:36:52;4.75;;;3.40;;
18867;SDS011;9563;49.240;9.088;2023-09-07T17:39:20;5.80;;;2.97;;
18867;SDS011;9563;49.240;9.088;2023-09-07T17:41:47;4.05;;;3.13;;
18867;SDS011;9563;49.240;9.088;2023-09-07T17:44:14;5.72;;;3.15;;
18867;SDS011;9563;49.240;9.088;2023-09-07T17:46:40;9.57;;;3.50;;
18867;SDS011;9563;49.240;9.088;2023-09-07T17:49:08;9.27;;;3.20;;
18867;SDS011;9563;49.240;9.088;2023-09-07T17:51:35;7.68;;;3.65;;
18867;SDS011;9563;49.240;9.088;2023-09-07T17:54:02;5.35;;;3.00;;
18867;SDS011;9563;49.240;9.088;2023-09-07T17:56:30;9.05;;;3.70;;
18867;SDS011;9563;49.240;9.088;2023-09-07T17:58:57;7.05;;;3.40;;
18867;SDS011;9563;49.240;9.088;2023-09-07T18:01:23;5.20;;;3.40;;
18867;SDS011;9563;49.240;9.088;2023-09-07T18:03:50;5.20;;;3.35;;
18867;SDS011;9563;49.240;9.088;2023-09-07T18:06:17;7.47;;;3.88;;
18867;SDS011;9563;49.240;9.088;2023-09-07T18:08:44;5.68;;;3.33;;
18867;SDS011;9563;49.240;9.088;2023-09-07T18:11:12;6.22;;;3.47;;
18867;SDS011;9563;49.240;9.088;2023-09-07T18:13:40;6.28;;;3.40;;
18867;SDS011;9563;49.240;9.088;2023-09-07T18:16:07;5.53;;;3.85;;
18867;SDS011;9563;49.240;9.088;2023-09-07T18:18:34;5.30;;;3.83;;
18867;SDS011;9563;49.240;9.088;2023-09-07T18:21:05;5.32;;;3.55;;
18867;SDS011;9563;49.240;9.088;2023-09-07T18:23:32;4.38;;;3.17;;
18867;SDS011;9563;49.240;9.088;2023-09-07T18:25:59;4.85;;;3.50;;
18867;SDS011;9563;49.240;9.088;2023-09-07T18:28:26;4.95;;;3.47;;
18867;SDS011;9563;49.240;9.088;2023-09-07T18:30:55;5.30;;;3.35;;
18867;SDS011;9563;49.240;9.088;2023-09-07T18:33:22;4.65;;;3.15;;
18867;SDS011;9563;49.240;9.088;2023-09-07T18:35:58;12.98;;;3.78;;
18867;SDS011;9563;49.240;9.088;2023-09-07T18:38:26;5.28;;;3.45;;
18867;SDS011;9563;49.240;9.088;2023-09-07T18:40:53;5.80;;;3.60;;
18867;SDS011;9563;49.240;9.088;2023-09-07T18:43:19;5.53;;;3.20;;
18867;SDS011;9563;49.240;9.088;2023-09-07T18:45:46;5.80;;;3.25;;
18867;SDS011;9563;49.240;9.088;2023-09-07T18:48:15;5.15;;;3.55;;
18867;SDS011;9563;49.240;9.088;2023-09-07T18:50:42;5.75;;;2.88;;
18867;SDS011;9563;49.240;9.088;2023-09-07T18:53:09;5.07;;;3.25;;
18867;SDS011;9563;49.240;9.088;2023-09-07T18:55:38;5.03;;;3.15;;
18867;SDS011;9563;49.240;9.088;2023-09-07T18:58:05;5.25;;;3.78;;
18867;SDS011;9563;49.240;9.088;2023-09-07T19:00:32;4.68;;;3.30;;
18867;SDS011;9563;49.240;9.088;2023-09-07T19:03:00;6.53;;;3.60;;
18867;SDS011;9563;49.240;9.088;2023-09-07T19:05:31;8.00;;;3.65;;